createdAt,value
2023-05-08T00:00:47.668Z,1004.01
2023-05-08T00:01:47.297Z,1004.03
2023-05-08T00:02:47.384Z,1004.01
2023-05-08T00:03:47.501Z,1004.03
2023-05-08T00:04:47.319Z,1004.04
2023-05-08T00:05:47.268Z,1004.03
2023-05-08T00:06:47.309Z,1004.03
2023-05-08T00:07:47.242Z,1004.03
2023-05-08T00:08:47.228Z,1004.02
2023-05-08T00:09:47.379Z,1004.02
2023-05-08T00:10:47.219Z,1004.02
2023-05-08T00:11:47.341Z,1004.01
2023-05-08T00:12:47.220Z,1004.02
2023-05-08T00:13:47.362Z,1004.04
2023-05-08T00:14:47.206Z,1004.03
2023-05-08T00:15:47.128Z,1004.04
2023-05-08T00:16:47.178Z,1004.05
2023-05-08T00:17:47.187Z,1004.02
2023-05-08T00:18:47.110Z,1004.04
2023-05-08T00:19:47.187Z,1004.05
2023-05-08T00:20:47.115Z,1004.05
2023-05-08T00:21:47.106Z,1004.03
2023-05-08T00:22:47.108Z,1004.06
2023-05-08T00:23:47.058Z,1004.04
2023-05-08T00:24:47.149Z,1004.04
2023-05-08T00:25:47.103Z,1004.08
2023-05-08T00:26:47.105Z,1004.05
2023-05-08T00:27:46.983Z,1004.05
2023-05-08T00:28:47.014Z,1004.03
2023-05-08T00:29:47.042Z,1004.04
2023-05-08T00:30:46.968Z,1004.06
2023-05-08T00:31:47.061Z,1004.06
2023-05-08T00:32:47.019Z,1004.07
2023-05-08T00:33:47.064Z,1004.08
2023-05-08T00:34:46.958Z,1004.07
2023-05-08T00:35:46.963Z,1004.07
2023-05-08T00:36:46.905Z,1004.06
2023-05-08T00:37:47.028Z,1004.04
2023-05-08T00:38:46.917Z,1004.02
2023-05-08T00:39:46.857Z,1004.02
2023-05-08T00:40:46.912Z,1004.01
2023-05-08T00:41:46.863Z,1003.99
2023-05-08T00:42:46.934Z,1004.02
2023-05-08T00:43:46.851Z,1004.02
2023-05-08T00:44:46.843Z,1004.00
2023-05-08T00:45:46.928Z,1003.99
2023-05-08T00:46:46.908Z,1004.03
2023-05-08T00:47:46.964Z,1004.03
2023-05-08T00:48:46.778Z,1004.04
2023-05-08T00:49:46.784Z,1004.04
2023-05-08T00:50:46.765Z,1004.06
2023-05-08T00:51:46.792Z,1004.04
2023-05-08T00:52:46.858Z,1004.07
2023-05-08T00:53:46.785Z,1004.07
2023-05-08T00:54:46.692Z,1004.06
2023-05-08T00:55:46.722Z,1004.06
2023-05-08T00:56:46.803Z,1004.07
2023-05-08T00:57:46.680Z,1004.04
2023-05-08T00:58:46.805Z,1004.03
2023-05-08T00:59:46.728Z,1004.01
2023-05-08T01:00:46.673Z,1004.00
2023-05-08T01:01:46.658Z,1004.01
2023-05-08T01:02:46.753Z,1004.03
2023-05-08T01:03:46.685Z,1004.03
2023-05-08T01:04:46.583Z,1004.05
2023-05-08T01:05:47.210Z,1004.04
2023-05-08T01:06:46.804Z,1004.04
2023-05-08T01:07:46.555Z,1004.05
2023-05-08T01:08:46.625Z,1004.05
2023-05-08T01:09:46.579Z,1004.04
2023-05-08T01:10:46.624Z,1004.04
2023-05-08T01:11:46.552Z,1004.08
2023-05-08T01:12:46.569Z,1004.07
2023-05-08T01:13:46.532Z,1004.07
2023-05-08T01:14:46.488Z,1004.09
2023-05-08T01:15:46.714Z,1004.10
2023-05-08T01:16:46.532Z,1004.12
2023-05-08T01:17:46.476Z,1004.13
2023-05-08T01:18:46.489Z,1004.14
2023-05-08T01:19:46.447Z,1004.15
2023-05-08T01:20:46.445Z,1004.14
2023-05-08T01:21:46.439Z,1004.16
2023-05-08T01:22:46.449Z,1004.19
2023-05-08T01:23:46.438Z,1004.21
2023-05-08T01:24:46.535Z,1004.24
2023-05-08T01:25:46.453Z,1004.25
2023-05-08T01:26:46.403Z,1004.26
2023-05-08T01:27:46.450Z,1004.25
2023-05-08T01:28:46.366Z,1004.25
2023-05-08T01:29:46.323Z,1004.28
2023-05-08T01:30:46.318Z,1004.28
2023-05-08T01:31:46.324Z,1004.27
2023-05-08T01:32:46.308Z,1004.26
2023-05-08T01:33:46.414Z,1004.25
2023-05-08T01:34:46.302Z,1004.25
2023-05-08T01:35:46.306Z,1004.24
2023-05-08T01:36:46.257Z,1004.23
2023-05-08T01:37:46.270Z,1004.23
2023-05-08T01:38:46.216Z,1004.23
2023-05-08T01:39:46.265Z,1004.23
2023-05-08T01:40:46.239Z,1004.23
2023-05-08T01:41:46.760Z,1004.24
2023-05-08T01:42:46.244Z,1004.25
2023-05-08T01:43:46.219Z,1004.25
2023-05-08T01:44:46.230Z,1004.27
2023-05-08T01:45:46.256Z,1004.28
2023-05-08T01:46:46.304Z,1004.29
2023-05-08T01:47:46.139Z,1004.29
2023-05-08T01:48:46.126Z,1004.30
2023-05-08T01:49:46.150Z,1004.30
2023-05-08T01:50:46.099Z,1004.31
2023-05-08T01:51:46.168Z,1004.30
2023-05-08T01:52:46.101Z,1004.31
2023-05-08T01:53:46.069Z,1004.31
2023-05-08T01:54:46.152Z,1004.31
2023-05-08T01:55:46.065Z,1004.31
2023-05-08T01:56:46.088Z,1004.32
2023-05-08T01:57:46.052Z,1004.33
2023-05-08T01:58:46.096Z,1004.34
2023-05-08T01:59:46.097Z,1004.33
2023-05-08T02:00:46.197Z,1004.34
2023-05-08T02:01:45.992Z,1004.35
2023-05-08T02:02:46.055Z,1004.37
2023-05-08T02:03:46.040Z,1004.37
2023-05-08T02:04:45.992Z,1004.37
2023-05-08T02:05:45.999Z,1004.39
2023-05-08T02:06:45.898Z,1004.40
2023-05-08T02:07:46.054Z,1004.41
2023-05-08T02:08:46.226Z,1004.43
2023-05-08T02:09:45.905Z,1004.44
2023-05-08T02:10:45.872Z,1004.45
2023-05-08T02:11:45.884Z,1004.45
2023-05-08T02:12:45.932Z,1004.44
2023-05-08T02:13:45.892Z,1004.46
2023-05-08T02:14:45.890Z,1004.48
2023-05-08T02:15:45.953Z,1004.49
2023-05-08T02:16:45.942Z,1004.50
2023-05-08T02:17:45.900Z,1004.51
2023-05-08T02:18:45.827Z,1004.51
2023-05-08T02:19:45.777Z,1004.52
2023-05-08T02:20:45.780Z,1004.53
2023-05-08T02:21:45.841Z,1004.54
2023-05-08T02:22:45.857Z,1004.55
2023-05-08T02:23:45.737Z,1004.55
2023-05-08T02:24:45.837Z,1004.56
2023-05-08T02:25:45.712Z,1004.55
2023-05-08T02:26:45.717Z,1004.55
2023-05-08T02:27:45.799Z,1004.55
2023-05-08T02:28:45.659Z,1004.53
2023-05-08T02:29:46.666Z,1004.54
2023-05-08T02:30:45.804Z,1004.54
2023-05-08T02:31:45.706Z,1004.54
2023-05-08T02:32:45.723Z,1004.55
2023-05-08T02:33:45.699Z,1004.56
2023-05-08T02:34:58.952Z,1004.58
2023-05-08T02:35:45.622Z,1004.58
2023-05-08T02:36:45.589Z,1004.59
2023-05-08T02:37:45.572Z,1004.59
2023-05-08T02:38:45.601Z,1004.60
2023-05-08T02:39:45.582Z,1004.59
2023-05-08T02:40:45.655Z,1004.62
2023-05-08T02:41:46.284Z,1004.60
2023-05-08T02:42:45.513Z,1004.60
2023-05-08T02:43:45.577Z,1004.61
2023-05-08T02:44:45.522Z,1004.62
2023-05-08T02:45:45.587Z,1004.63
2023-05-08T02:46:45.727Z,1004.64
2023-05-08T02:47:45.547Z,1004.64
2023-05-08T02:48:45.453Z,1004.65
2023-05-08T02:49:45.429Z,1004.65
2023-05-08T02:50:45.565Z,1004.67
2023-05-08T02:51:45.508Z,1004.69
2023-05-08T02:52:45.446Z,1004.68
2023-05-08T02:53:45.458Z,1004.68
2023-05-08T02:54:45.444Z,1004.68
2023-05-08T02:55:45.428Z,1004.68
2023-05-08T02:56:45.401Z,1004.70
2023-05-08T02:57:45.359Z,1004.70
2023-05-08T02:58:45.361Z,1004.71
2023-05-08T02:59:45.349Z,1004.71
2023-05-08T03:00:45.335Z,1004.72
2023-05-08T03:01:45.355Z,1004.73
2023-05-08T03:02:45.350Z,1004.73
2023-05-08T03:03:45.592Z,1004.75
2023-05-08T03:04:45.293Z,1004.74
2023-05-08T03:05:45.300Z,1004.75
2023-05-08T03:06:45.306Z,1004.73
2023-05-08T03:07:45.319Z,1004.71
2023-05-08T03:08:45.351Z,1004.71
2023-05-08T03:09:45.255Z,1004.69
2023-05-08T03:10:45.235Z,1004.69
2023-05-08T03:11:45.230Z,1004.68
2023-05-08T03:12:45.310Z,1004.66
2023-05-08T03:13:45.300Z,1004.65
2023-05-08T03:14:45.265Z,1004.63
2023-05-08T03:15:45.235Z,1004.64
2023-05-08T03:16:45.132Z,1004.65
2023-05-08T03:17:45.182Z,1004.65
2023-05-08T03:18:45.161Z,1004.65
2023-05-08T03:19:45.116Z,1004.66
2023-05-08T03:20:45.144Z,1004.65
2023-05-08T03:21:45.155Z,1004.65
2023-05-08T03:22:45.003Z,1004.66
2023-05-08T03:23:45.050Z,1004.67
2023-05-08T03:24:44.997Z,1004.67
2023-05-08T03:25:44.990Z,1004.67
2023-05-08T03:26:45.056Z,1004.67
2023-05-08T03:27:44.982Z,1004.67
2023-05-08T03:28:44.936Z,1004.68
2023-05-08T03:29:44.944Z,1004.66
2023-05-08T03:30:44.978Z,1004.68
2023-05-08T03:31:45.027Z,1004.68
2023-05-08T03:32:44.935Z,1004.69
2023-05-08T03:33:44.890Z,1004.69
2023-05-08T03:34:44.908Z,1004.69
2023-05-08T03:35:44.876Z,1004.69
2023-05-08T03:36:44.915Z,1004.67
2023-05-08T03:37:44.838Z,1004.67
2023-05-08T03:38:44.933Z,1004.68
2023-05-08T03:39:44.938Z,1004.68
2023-05-08T03:40:44.846Z,1004.67
2023-05-08T03:41:44.838Z,1004.67
2023-05-08T03:42:44.846Z,1004.67
2023-05-08T03:43:45.762Z,1004.67
2023-05-08T03:44:44.800Z,1004.66
2023-05-08T03:45:44.796Z,1004.68
2023-05-08T03:46:44.795Z,1004.69
2023-05-08T03:47:44.831Z,1004.69
2023-05-08T03:48:44.778Z,1004.69
2023-05-08T03:49:44.825Z,1004.69
2023-05-08T03:50:44.835Z,1004.70
2023-05-08T03:51:44.697Z,1004.72
2023-05-08T03:52:44.682Z,1004.71
2023-05-08T03:53:44.708Z,1004.73
2023-05-08T03:54:44.688Z,1004.73
2023-05-08T03:55:44.735Z,1004.74
2023-05-08T03:56:44.645Z,1004.74
2023-05-08T03:57:44.637Z,1004.75
2023-05-08T03:58:44.617Z,1004.76
2023-05-08T03:59:44.890Z,1004.77
2023-05-08T04:00:44.596Z,1004.79
2023-05-08T04:01:44.617Z,1004.81
2023-05-08T04:02:44.645Z,1004.81
2023-05-08T04:03:44.639Z,1004.81
2023-05-08T04:04:44.531Z,1004.82
2023-05-08T04:05:44.597Z,1004.82
2023-05-08T04:06:49.847Z,1004.82
2023-05-08T04:07:44.520Z,1004.84
2023-05-08T04:08:44.616Z,1004.86
2023-05-08T04:09:44.538Z,1004.89
2023-05-08T04:10:44.507Z,1004.91
2023-05-08T04:11:44.480Z,1004.93
2023-05-08T04:12:44.514Z,1004.94
2023-05-08T04:13:44.468Z,1004.95
2023-05-08T04:14:44.420Z,1004.97
2023-05-08T04:15:44.419Z,1004.95
2023-05-08T04:16:44.458Z,1004.95
2023-05-08T04:17:44.458Z,1004.95
2023-05-08T04:18:44.419Z,1004.95
2023-05-08T04:19:44.402Z,1004.95
2023-05-08T04:20:45.036Z,1004.95
2023-05-08T04:21:44.355Z,1004.95
2023-05-08T04:22:44.368Z,1004.93
2023-05-08T04:23:44.345Z,1004.92
2023-05-08T04:24:44.345Z,1004.94
2023-05-08T04:25:44.308Z,1004.95
2023-05-08T04:26:44.312Z,1004.96
2023-05-08T04:27:44.294Z,1004.96
2023-05-08T04:28:44.269Z,1004.97
2023-05-08T04:29:44.309Z,1004.98
2023-05-08T04:30:44.288Z,1004.98
2023-05-08T04:31:44.364Z,1004.98
2023-05-08T04:32:46.382Z,1004.98
2023-05-08T04:33:44.268Z,1004.99
2023-05-08T04:34:44.204Z,1004.99
2023-05-08T04:35:44.207Z,1004.98
2023-05-08T04:36:44.228Z,1004.98
2023-05-08T04:37:44.209Z,1004.97
2023-05-08T04:38:44.166Z,1004.97
2023-05-08T04:39:44.147Z,1004.97
2023-05-08T04:40:44.153Z,1004.97
2023-05-08T04:41:44.172Z,1004.96
2023-05-08T04:42:44.154Z,1004.97
2023-05-08T04:43:44.142Z,1004.97
2023-05-08T04:44:44.091Z,1004.96
2023-05-08T04:45:44.179Z,1004.95
2023-05-08T04:46:44.117Z,1004.96
2023-05-08T04:47:44.102Z,1004.96
2023-05-08T04:48:44.082Z,1004.96
2023-05-08T04:49:44.062Z,1004.96
2023-05-08T04:50:44.036Z,1004.96
2023-05-08T04:51:44.032Z,1004.96
2023-05-08T04:52:44.006Z,1004.97
2023-05-08T04:53:44.029Z,1004.98
2023-05-08T04:54:44.033Z,1004.98
2023-05-08T04:55:44.001Z,1004.99
2023-05-08T04:56:44.022Z,1005.01
2023-05-08T04:57:44.002Z,1005.03
2023-05-08T04:58:43.981Z,1005.04
2023-05-08T04:59:43.943Z,1005.06
2023-05-08T05:00:44.074Z,1005.08
2023-05-08T05:01:43.975Z,1005.08
2023-05-08T05:02:43.982Z,1005.09
2023-05-08T05:03:43.944Z,1005.10
2023-05-08T05:04:43.885Z,1005.09
2023-05-08T05:05:43.867Z,1005.12
2023-05-08T05:06:43.901Z,1005.12
2023-05-08T05:07:43.917Z,1005.13
2023-05-08T05:08:43.830Z,1005.14
2023-05-08T05:09:43.819Z,1005.15
2023-05-08T05:10:43.825Z,1005.15
2023-05-08T05:11:43.808Z,1005.17
2023-05-08T05:12:43.829Z,1005.19
2023-05-08T05:13:43.776Z,1005.21
2023-05-08T05:14:43.791Z,1005.22
2023-05-08T05:15:43.791Z,1005.22
2023-05-08T05:16:43.788Z,1005.22
2023-05-08T05:17:43.807Z,1005.22
2023-05-08T05:18:43.720Z,1005.22
2023-05-08T05:19:43.830Z,1005.22
2023-05-08T05:20:43.733Z,1005.24
2023-05-08T05:21:43.699Z,1005.24
2023-05-08T05:22:43.703Z,1005.24
2023-05-08T05:23:43.722Z,1005.26
2023-05-08T05:24:43.710Z,1005.29
2023-05-08T05:25:43.664Z,1005.31
2023-05-08T05:26:43.632Z,1005.32
2023-05-08T05:27:43.613Z,1005.33
2023-05-08T05:28:43.634Z,1005.35
2023-05-08T05:29:43.661Z,1005.37
2023-05-08T05:30:43.641Z,1005.37
2023-05-08T05:31:43.712Z,1005.38
2023-05-08T05:32:43.630Z,1005.38
2023-05-08T05:33:43.546Z,1005.39
2023-05-08T05:34:43.564Z,1005.37
2023-05-08T05:35:43.628Z,1005.37
2023-05-08T05:36:43.554Z,1005.36
2023-05-08T05:37:43.535Z,1005.38
2023-05-08T05:38:43.512Z,1005.38
2023-05-08T05:39:43.520Z,1005.40
2023-05-08T05:40:43.518Z,1005.40
2023-05-08T05:41:43.506Z,1005.39
2023-05-08T05:42:43.468Z,1005.42
2023-05-08T05:43:43.470Z,1005.43
2023-05-08T05:44:43.484Z,1005.44
2023-05-08T05:45:43.515Z,1005.46
2023-05-08T05:46:44.622Z,1005.47
2023-05-08T05:47:43.510Z,1005.49
2023-05-08T05:48:43.416Z,1005.49
2023-05-08T05:49:43.369Z,1005.49
2023-05-08T05:50:43.356Z,1005.52
2023-05-08T05:51:43.370Z,1005.54
2023-05-08T05:52:43.365Z,1005.55
2023-05-08T05:53:43.383Z,1005.56
2023-05-08T05:54:43.340Z,1005.56
2023-05-08T05:55:43.464Z,1005.56
2023-05-08T05:56:43.389Z,1005.57
2023-05-08T05:57:43.787Z,1005.56
2023-05-08T05:58:43.324Z,1005.56
2023-05-08T05:59:43.273Z,1005.56
2023-05-08T06:00:43.250Z,1005.58
2023-05-08T06:01:43.321Z,1005.57
2023-05-08T06:02:43.342Z,1005.59
2023-05-08T06:03:43.414Z,1005.57
2023-05-08T06:04:43.258Z,1005.60
2023-05-08T06:05:43.228Z,1005.60
2023-05-08T06:06:43.229Z,1005.59
2023-05-08T06:07:43.329Z,1005.59
2023-05-08T06:08:43.194Z,1005.57
2023-05-08T06:09:43.172Z,1005.58
2023-05-08T06:10:43.292Z,1005.58
2023-05-08T06:11:43.278Z,1005.59
2023-05-08T06:12:43.315Z,1005.59
2023-05-08T06:13:43.171Z,1005.59
2023-05-08T06:14:43.154Z,1005.59
2023-05-08T06:15:43.177Z,1005.59
2023-05-08T06:16:43.175Z,1005.59
2023-05-08T06:17:43.127Z,1005.61
2023-05-08T06:18:43.086Z,1005.62
2023-05-08T06:19:43.250Z,1005.62
2023-05-08T06:20:43.165Z,1005.63
2023-05-08T06:21:43.168Z,1005.62
2023-05-08T06:22:43.147Z,1005.62
2023-05-08T06:23:43.009Z,1005.65
2023-05-08T06:24:43.020Z,1005.66
2023-05-08T06:25:42.990Z,1005.65
2023-05-08T06:26:42.973Z,1005.67
2023-05-08T06:27:42.980Z,1005.69
2023-05-08T06:28:43.166Z,1005.70
2023-05-08T06:29:43.005Z,1005.72
2023-05-08T06:30:43.059Z,1005.75
2023-05-08T06:31:42.990Z,1005.75
2023-05-08T06:32:43.053Z,1005.77
2023-05-08T06:33:43.015Z,1005.79
2023-05-08T06:34:42.899Z,1005.79
2023-05-08T06:35:42.883Z,1005.81
2023-05-08T06:36:42.861Z,1005.81
2023-05-08T06:37:42.852Z,1005.81
2023-05-08T06:38:42.866Z,1005.82
2023-05-08T06:39:42.853Z,1005.82
2023-05-08T06:40:42.833Z,1005.82
2023-05-08T06:41:42.866Z,1005.82
2023-05-08T06:42:42.790Z,1005.81
2023-05-08T06:43:42.919Z,1005.81
2023-05-08T06:44:42.894Z,1005.81
2023-05-08T06:45:42.899Z,1005.80
2023-05-08T06:46:42.889Z,1005.79
2023-05-08T06:47:42.842Z,1005.80
2023-05-08T06:48:42.719Z,1005.79
2023-05-08T06:49:42.741Z,1005.80
2023-05-08T06:50:42.732Z,1005.79
2023-05-08T06:51:42.706Z,1005.79
2023-05-08T06:52:42.732Z,1005.80
2023-05-08T06:53:42.708Z,1005.82
2023-05-08T06:54:42.679Z,1005.83
2023-05-08T06:55:42.678Z,1005.83
2023-05-08T06:56:42.667Z,1005.84
2023-05-08T06:57:42.630Z,1005.84
2023-05-08T06:58:46.333Z,1005.84
2023-05-08T06:59:42.644Z,1005.84
2023-05-08T07:00:42.600Z,1005.83
2023-05-08T07:01:42.656Z,1005.83
2023-05-08T07:02:42.638Z,1005.82
2023-05-08T07:03:42.571Z,1005.81
2023-05-08T07:04:42.672Z,1005.79
2023-05-08T07:05:42.566Z,1005.80
2023-05-08T07:06:42.582Z,1005.80
2023-05-08T07:07:42.560Z,1005.79
2023-05-08T07:08:42.553Z,1005.77
2023-05-08T07:09:42.554Z,1005.77
2023-05-08T07:10:42.533Z,1005.76
2023-05-08T07:11:42.496Z,1005.76
2023-05-08T07:12:42.527Z,1005.74
2023-05-08T07:13:42.481Z,1005.74
2023-05-08T07:14:42.443Z,1005.73
2023-05-08T07:15:42.600Z,1005.73
2023-05-08T07:16:42.504Z,1005.74
2023-05-08T07:17:42.420Z,1005.75
2023-05-08T07:18:42.395Z,1005.75
2023-05-08T07:19:42.488Z,1005.76
2023-05-08T07:20:42.412Z,1005.77
2023-05-08T07:21:42.404Z,1005.77
2023-05-08T07:22:42.364Z,1005.77
2023-05-08T07:23:42.366Z,1005.79
2023-05-08T07:24:42.339Z,1005.80
2023-05-08T07:25:42.411Z,1005.80
2023-05-08T07:26:42.341Z,1005.80
2023-05-08T07:27:42.311Z,1005.81
2023-05-08T07:28:42.277Z,1005.81
2023-05-08T07:29:42.264Z,1005.82
2023-05-08T07:30:42.276Z,1005.82
2023-05-08T07:31:42.282Z,1005.82
2023-05-08T07:32:42.422Z,1005.83
2023-05-08T07:33:42.247Z,1005.85
2023-05-08T07:34:42.246Z,1005.85
2023-05-08T07:35:42.203Z,1005.86
2023-05-08T07:36:42.208Z,1005.87
2023-05-08T07:37:42.195Z,1005.87
2023-05-08T07:38:42.213Z,1005.87
2023-05-08T07:39:42.214Z,1005.87
2023-05-08T07:40:42.167Z,1005.86
2023-05-08T07:41:42.180Z,1005.85
2023-05-08T07:42:42.158Z,1005.84
2023-05-08T07:43:42.149Z,1005.84
2023-05-08T07:44:53.644Z,1005.83
2023-05-08T07:45:42.100Z,1005.83
2023-05-08T07:46:42.114Z,1005.82
2023-05-08T07:47:42.143Z,1005.81
2023-05-08T07:48:42.065Z,1005.82
2023-05-08T07:49:42.086Z,1005.83
2023-05-08T07:50:42.061Z,1005.83
2023-05-08T07:51:42.024Z,1005.83
2023-05-08T07:52:42.034Z,1005.83
2023-05-08T07:53:42.070Z,1005.83
2023-05-08T07:54:42.002Z,1005.84
2023-05-08T07:55:41.988Z,1005.84
2023-05-08T07:56:42.027Z,1005.85
2023-05-08T07:57:41.988Z,1005.85
2023-05-08T07:58:42.018Z,1005.86
2023-05-08T07:59:42.093Z,1005.86
2023-05-08T08:00:41.934Z,1005.85
2023-05-08T08:01:41.970Z,1005.86
2023-05-08T08:02:42.049Z,1005.87
2023-05-08T08:03:42.013Z,1005.86
2023-05-08T08:04:41.927Z,1005.86
2023-05-08T08:05:41.884Z,1005.86
2023-05-08T08:06:41.863Z,1005.87
2023-05-08T08:07:41.889Z,1005.86
2023-05-08T08:08:41.858Z,1005.86
2023-05-08T08:09:41.896Z,1005.86
2023-05-08T08:10:41.847Z,1005.86
2023-05-08T08:11:41.822Z,1005.86
2023-05-08T08:12:41.854Z,1005.86
2023-05-08T08:13:41.811Z,1005.86
2023-05-08T08:14:41.804Z,1005.86
2023-05-08T08:15:41.772Z,1005.85
2023-05-08T08:16:41.787Z,1005.83
2023-05-08T08:17:41.867Z,1005.82
2023-05-08T08:18:41.736Z,1005.82
2023-05-08T08:19:41.734Z,1005.81
2023-05-08T08:20:41.747Z,1005.81
2023-05-08T08:21:41.709Z,1005.80
2023-05-08T08:22:41.778Z,1005.79
2023-05-08T08:23:41.699Z,1005.79
2023-05-08T08:24:41.684Z,1005.79
2023-05-08T08:25:41.704Z,1005.79
2023-05-08T08:26:41.673Z,1005.79
2023-05-08T08:27:41.659Z,1005.79
2023-05-08T08:28:41.633Z,1005.79
2023-05-08T08:29:41.630Z,1005.79
2023-05-08T08:30:41.650Z,1005.79
2023-05-08T08:31:41.699Z,1005.80
2023-05-08T08:32:41.722Z,1005.80
2023-05-08T08:33:41.618Z,1005.80
2023-05-08T08:34:41.584Z,1005.79
2023-05-08T08:35:41.549Z,1005.79
2023-05-08T08:36:41.545Z,1005.78
2023-05-08T08:37:41.575Z,1005.79
2023-05-08T08:38:41.549Z,1005.79
2023-05-08T08:39:41.498Z,1005.78
2023-05-08T08:40:41.505Z,1005.77
2023-05-08T08:41:41.503Z,1005.75
2023-05-08T08:42:41.482Z,1005.74
2023-05-08T08:43:41.463Z,1005.73
2023-05-08T08:44:41.487Z,1005.74
2023-05-08T08:45:41.462Z,1005.74
2023-05-08T08:46:41.527Z,1005.75
2023-05-08T08:47:41.546Z,1005.77
2023-05-08T08:48:41.426Z,1005.79
2023-05-08T08:49:41.413Z,1005.81
2023-05-08T08:50:41.403Z,1005.82
2023-05-08T08:51:41.417Z,1005.84
2023-05-08T08:52:41.372Z,1005.85
2023-05-08T08:53:41.365Z,1005.86
2023-05-08T08:54:41.370Z,1005.87
2023-05-08T08:55:41.354Z,1005.89
2023-05-08T08:56:41.340Z,1005.90
2023-05-08T08:57:41.331Z,1005.91
2023-05-08T08:58:41.297Z,1005.93
2023-05-08T08:59:41.281Z,1005.93
2023-05-08T09:00:41.280Z,1005.93
2023-05-08T09:01:41.301Z,1005.93
2023-05-08T09:02:41.352Z,1005.95
2023-05-08T09:03:41.481Z,1005.96
2023-05-08T09:04:41.238Z,1005.95
2023-05-08T09:05:41.279Z,1005.94
2023-05-08T09:06:41.246Z,1005.94
2023-05-08T09:07:41.215Z,1005.94
2023-05-08T09:08:41.222Z,1005.93
2023-05-08T09:09:41.232Z,1005.94
2023-05-08T09:10:41.183Z,1005.95
2023-05-08T09:11:41.191Z,1005.96
2023-05-08T09:12:41.277Z,1005.96
2023-05-08T09:13:41.141Z,1005.97
2023-05-08T09:14:41.146Z,1005.97
2023-05-08T09:15:41.155Z,1005.96
2023-05-08T09:16:41.140Z,1005.98
2023-05-08T09:17:41.139Z,1005.98
2023-05-08T09:18:41.117Z,1005.97
2023-05-08T09:19:41.079Z,1005.99
2023-05-08T09:20:41.069Z,1005.98
2023-05-08T09:21:41.042Z,1005.97
2023-05-08T09:22:41.059Z,1005.98
2023-05-08T09:23:41.027Z,1005.98
2023-05-08T09:24:41.009Z,1005.99
2023-05-08T09:25:41.044Z,1006.00
2023-05-08T09:26:41.001Z,1005.99
2023-05-08T09:27:41.015Z,1006.00
2023-05-08T09:28:40.977Z,1006.00
2023-05-08T09:29:40.959Z,1006.01
2023-05-08T09:30:40.973Z,1006.01
2023-05-08T09:31:40.973Z,1006.02
2023-05-08T09:32:41.004Z,1006.02
2023-05-08T09:33:40.912Z,1006.01
2023-05-08T09:34:40.903Z,1006.02
2023-05-08T09:35:40.920Z,1006.03
2023-05-08T09:36:40.881Z,1006.03
2023-05-08T09:37:40.883Z,1006.04
2023-05-08T09:38:40.876Z,1006.05
2023-05-08T09:39:40.857Z,1006.07
2023-05-08T09:40:40.828Z,1006.10
2023-05-08T09:41:40.857Z,1006.11
2023-05-08T09:42:40.840Z,1006.13
2023-05-08T09:43:40.822Z,1006.14
2023-05-08T09:44:40.785Z,1006.16
2023-05-08T09:45:40.824Z,1006.17
2023-05-08T09:46:40.780Z,1006.17
2023-05-08T09:47:40.792Z,1006.20
2023-05-08T09:48:40.790Z,1006.21
2023-05-08T09:49:40.777Z,1006.22
2023-05-08T09:50:41.685Z,1006.22
2023-05-08T09:51:40.726Z,1006.23
2023-05-08T09:52:40.761Z,1006.24
2023-05-08T09:53:40.717Z,1006.24
2023-05-08T09:54:40.689Z,1006.25
2023-05-08T09:55:40.669Z,1006.25
2023-05-08T09:56:40.680Z,1006.27
2023-05-08T09:57:40.650Z,1006.28
2023-05-08T09:58:40.649Z,1006.28
2023-05-08T09:59:40.636Z,1006.29
2023-05-08T10:00:40.622Z,1006.30
2023-05-08T10:01:40.667Z,1006.29
2023-05-08T10:02:40.646Z,1006.29
2023-05-08T10:03:40.631Z,1006.28
2023-05-08T10:04:40.590Z,1006.29
2023-05-08T10:05:40.555Z,1006.29
2023-05-08T10:06:40.545Z,1006.28
2023-05-08T10:07:40.637Z,1006.28
2023-05-08T10:08:40.532Z,1006.28
2023-05-08T10:09:50.243Z,1006.28
2023-05-08T10:10:40.539Z,1006.27
2023-05-08T10:11:40.494Z,1006.26
2023-05-08T10:12:40.575Z,1006.25
2023-05-08T10:13:40.505Z,1006.24
2023-05-08T10:14:40.528Z,1006.23
2023-05-08T10:15:40.456Z,1006.23
2023-05-08T10:16:40.477Z,1006.21
2023-05-08T10:17:40.476Z,1006.21
2023-05-08T10:18:40.438Z,1006.20
2023-05-08T10:19:40.416Z,1006.21
2023-05-08T10:20:40.405Z,1006.20
2023-05-08T10:21:40.382Z,1006.21
2023-05-08T10:22:40.374Z,1006.19
2023-05-08T10:23:40.516Z,1006.20
2023-05-08T10:24:40.366Z,1006.19
2023-05-08T10:25:40.381Z,1006.20
2023-05-08T10:26:43.697Z,1006.19
2023-05-08T10:27:40.331Z,1006.18
2023-05-08T10:28:40.378Z,1006.16
2023-05-08T10:29:40.325Z,1006.14
2023-05-08T10:30:40.409Z,1006.12
2023-05-08T10:31:40.343Z,1006.11
2023-05-08T10:32:40.311Z,1006.08
2023-05-08T10:33:40.296Z,1006.06
2023-05-08T10:34:40.256Z,1006.05
2023-05-08T10:35:40.237Z,1006.04
2023-05-08T10:36:40.224Z,1006.03
2023-05-08T10:37:40.223Z,1006.02
2023-05-08T10:38:40.204Z,1006.02
2023-05-08T10:39:40.209Z,1006.03
2023-05-08T10:40:40.204Z,1006.03
2023-05-08T10:41:40.195Z,1006.04
2023-05-08T10:42:40.152Z,1006.04
2023-05-08T10:43:40.182Z,1006.05
2023-05-08T10:44:40.157Z,1006.05
2023-05-08T10:45:40.157Z,1006.06
2023-05-08T10:46:40.161Z,1006.05
2023-05-08T10:47:40.148Z,1006.06
2023-05-08T10:48:40.209Z,1006.06
2023-05-08T10:49:40.091Z,1006.08
2023-05-08T10:50:40.112Z,1006.08
2023-05-08T10:51:40.068Z,1006.08
2023-05-08T10:52:40.083Z,1006.08
2023-05-08T10:53:40.076Z,1006.08
2023-05-08T10:54:40.031Z,1006.08
2023-05-08T10:55:40.018Z,1006.06
2023-05-08T10:56:39.997Z,1006.05
2023-05-08T10:57:40.050Z,1006.04
2023-05-08T10:58:40.078Z,1006.03
2023-05-08T10:59:39.982Z,1006.00
2023-05-08T11:00:40.066Z,1005.97
2023-05-08T11:01:39.984Z,1005.95
2023-05-08T11:02:40.061Z,1005.94
2023-05-08T11:03:39.982Z,1005.92
2023-05-08T11:04:39.993Z,1005.90
2023-05-08T11:05:40.002Z,1005.86
2023-05-08T11:06:40.036Z,1005.85
2023-05-08T11:07:39.900Z,1005.82
2023-05-08T11:08:39.906Z,1005.80
2023-05-08T11:09:40.038Z,1005.80
2023-05-08T11:10:39.856Z,1005.79
2023-05-08T11:11:40.083Z,1005.77
2023-05-08T11:12:39.889Z,1005.77
2023-05-08T11:13:39.806Z,1005.78
2023-05-08T11:14:40.425Z,1005.78
2023-05-08T11:15:39.794Z,1005.77
2023-05-08T11:16:39.947Z,1005.78
2023-05-08T11:17:39.813Z,1005.78
2023-05-08T11:18:49.117Z,1005.77
2023-05-08T11:19:39.816Z,1005.79
2023-05-08T11:20:39.751Z,1005.77
2023-05-08T11:21:39.736Z,1005.76
2023-05-08T11:22:39.877Z,1005.76
2023-05-08T11:23:39.744Z,1005.77
2023-05-08T11:24:39.710Z,1005.77
2023-05-08T11:25:39.712Z,1005.78
2023-05-08T11:26:39.666Z,1005.78
2023-05-08T11:27:39.698Z,1005.79
2023-05-08T11:28:39.750Z,1005.79
2023-05-08T11:29:39.682Z,1005.80
2023-05-08T11:30:39.693Z,1005.79
2023-05-08T11:31:39.638Z,1005.80
2023-05-08T11:32:39.626Z,1005.79
2023-05-08T11:33:39.620Z,1005.79
2023-05-08T11:34:39.886Z,1005.79
2023-05-08T11:35:39.680Z,1005.79
2023-05-08T11:36:39.704Z,1005.80
2023-05-08T11:37:39.611Z,1005.79
2023-05-08T11:38:39.798Z,1005.80
2023-05-08T11:39:39.607Z,1005.80
2023-05-08T11:40:39.633Z,1005.81
2023-05-08T11:41:39.583Z,1005.80
2023-05-08T11:42:39.608Z,1005.80
2023-05-08T11:43:39.555Z,1005.80
2023-05-08T11:44:39.495Z,1005.79
2023-05-08T11:45:39.486Z,1005.78
2023-05-08T11:46:39.523Z,1005.77
2023-05-08T11:47:39.563Z,1005.77
2023-05-08T11:48:39.487Z,1005.77
2023-05-08T11:49:39.463Z,1005.77
2023-05-08T11:50:39.431Z,1005.76
2023-05-08T11:51:39.409Z,1005.75
2023-05-08T11:52:39.649Z,1005.74
2023-05-08T11:53:39.398Z,1005.73
2023-05-08T11:54:39.412Z,1005.71
2023-05-08T11:55:39.472Z,1005.71
2023-05-08T11:56:39.546Z,1005.70
2023-05-08T11:57:39.531Z,1005.68
2023-05-08T11:58:39.409Z,1005.69
2023-05-08T11:59:39.449Z,1005.69
2023-05-08T12:00:39.597Z,1005.67
2023-05-08T12:01:39.365Z,1005.69
2023-05-08T12:02:39.471Z,1005.68
2023-05-08T12:03:39.547Z,1005.68
2023-05-08T12:04:39.420Z,1005.67
2023-05-08T12:05:39.461Z,1005.65